S C — FGF7634 — position and weather

sailwx.info

Track history (hours):
 
Tides and Currents Weather Stations Pressure Air Temp Water Temp Dewpoint Dewpoint Depression Visibility Wind Speed Wind Dir Waves Ship Positions

S C

Last reported at 2015-Jun-30 14:33 UTC. Time now 2015-Jul-01 01:49 UTC.
Position N 49°29' E 000°07'.

; draft 1 m.

Type: Pilot. MMSI: 227001820.

Date/timePositionNaut miles runAvg speedWind from/ knotsBaromVisibWave heightAir tempDewpointWater temp
2015-Jun-30 14:33N 49°29' E 000°07'0 0.1
2015-Jun-30 13:33N 49°29' E 000°07'0 0.0
2015-Jun-29 14:29N 49°29' E 000°07'6 6.6
2015-Jun-29 13:33N 49°31' W 000°02'6 6.1
2015-Jun-29 12:33N 49°29' E 000°07'0 0.0
2015-Jun-29 11:33N 49°29' E 000°07'0 0.0
2015-Jun-29 10:33N 49°29' E 000°07'0 0.0
2015-Jun-29 09:33N 49°29' E 000°07'0 0.1
2015-Jun-29 08:33N 49°29' E 000°07'0 0.1
2015-Jun-29 07:33N 49°29' E 000°07'0 0.0
2015-Jun-29 06:33N 49°29' E 000°07'5 5.3
2015-Jun-29 05:33N 49°32' E 000°00'5 5.3
2015-Jun-29 04:33N 49°29' E 000°07'0 0.0
2015-Jun-29 03:33N 49°29' E 000°07'0 0.0
2015-Jun-29 02:33N 49°29' E 000°07'7 7.0
2015-Jun-29 01:33N 49°31' W 000°03'7 7.0
2015-Jun-29 00:33N 49°29' E 000°07'0 0.0
2015-Jun-28 23:33N 49°29' E 000°07'0 0.0
2015-Jun-28 22:33N 49°29' E 000°07'2 1.5
2015-Jun-28 21:33N 49°29' E 000°04'1 1.5
2015-Jun-28 20:33N 49°29' E 000°07'0 0.0
2015-Jun-28 19:33N 49°29' E 000°07'0 0.0
2015-Jun-28 18:33N 49°29' E 000°07'0 0.3
2015-Jun-28 17:33N 49°29' E 000°06'0 0.3
2015-Jun-28 16:33N 49°29' E 000°07'  
2015-Jun-26 12:33N 49°29' E 000°07'4 4.3
2015-Jun-26 11:33N 49°30' E 000°00'3 3.4
2015-Jun-26 10:33N 49°29' E 000°06'1 0.8
2015-Jun-26 09:33N 49°29' E 000°07'1 0.9
2015-Jun-26 08:34N 49°29' E 000°05'3 2.6
2015-Jun-26 07:33N 49°30' E 000°02'4 3.5
2015-Jun-26 06:34N 49°29' E 000°07'0 0.0
2015-Jun-26 05:34N 49°29' E 000°07'1616.2
2015-Jun-26 04:33N 49°43' W 000°05'1616.2
2015-Jun-26 03:33N 49°29' E 000°07'0 0.0
2015-Jun-26 02:33N 49°29' E 000°07'0 0.0
2015-Jun-26 01:33N 49°29' E 000°07'0 0.3
2015-Jun-26 00:33N 49°29' E 000°06'0 0.3
2015-Jun-25 23:33N 49°29' E 000°07'0 0.0
2015-Jun-25 22:32N 49°29' E 000°07'0 0.0
2015-Jun-25 21:33N 49°29' E 000°07'0 0.0
2015-Jun-25 20:33N 49°29' E 000°07'0 0.4
2015-Jun-25 19:33N 49°29' E 000°06'0 0.2
2015-Jun-25 18:33N 49°29' E 000°07'0 0.2
2015-Jun-25 17:33N 49°29' E 000°07'0 0.0
2015-Jun-25 16:33N 49°29' E 000°07'0 0.0
2015-Jun-25 15:33N 49°29' E 000°07'  
Track history (hours):
 
Tides and Currents Weather Stations Pressure Air Temp Water Temp Dewpoint Dewpoint Depression Visibility Wind Speed Wind Dir Waves Ship Positions

S C

Last reported at 2015-Jun-30 14:33 UTC. Time now 2015-Jul-01 01:49 UTC.
Position N 49°29' E 000°07'.

; draft 1 m.

Type: Pilot. MMSI: 227001820.

Date/timePositionNaut miles runAvg speedWind from/ knotsBaromVisibWave heightAir tempDewpointWater temp
2015-Jun-30 14:33N 49°29' E 000°07'0 0.1
2015-Jun-30 13:33N 49°29' E 000°07'0 0.0
2015-Jun-29 14:29N 49°29' E 000°07'6 6.6
2015-Jun-29 13:33N 49°31' W 000°02'6 6.1
2015-Jun-29 12:33N 49°29' E 000°07'0 0.0
2015-Jun-29 11:33N 49°29' E 000°07'0 0.0
2015-Jun-29 10:33N 49°29' E 000°07'0 0.0
2015-Jun-29 09:33N 49°29' E 000°07'0 0.1
2015-Jun-29 08:33N 49°29' E 000°07'0 0.1
2015-Jun-29 07:33N 49°29' E 000°07'0 0.0
2015-Jun-29 06:33N 49°29' E 000°07'5 5.3
2015-Jun-29 05:33N 49°32' E 000°00'5 5.3
2015-Jun-29 04:33N 49°29' E 000°07'0 0.0
2015-Jun-29 03:33N 49°29' E 000°07'0 0.0
2015-Jun-29 02:33N 49°29' E 000°07'7 7.0
2015-Jun-29 01:33N 49°31' W 000°03'7 7.0
2015-Jun-29 00:33N 49°29' E 000°07'0 0.0
2015-Jun-28 23:33N 49°29' E 000°07'0 0.0
2015-Jun-28 22:33N 49°29' E 000°07'2 1.5
2015-Jun-28 21:33N 49°29' E 000°04'1 1.5
2015-Jun-28 20:33N 49°29' E 000°07'0 0.0
2015-Jun-28 19:33N 49°29' E 000°07'0 0.0
2015-Jun-28 18:33N 49°29' E 000°07'0 0.3
2015-Jun-28 17:33N 49°29' E 000°06'0 0.3
2015-Jun-28 16:33N 49°29' E 000°07'  
2015-Jun-26 12:33N 49°29' E 000°07'4 4.3
2015-Jun-26 11:33N 49°30' E 000°00'3 3.4
2015-Jun-26 10:33N 49°29' E 000°06'1 0.8
2015-Jun-26 09:33N 49°29' E 000°07'1 0.9
2015-Jun-26 08:34N 49°29' E 000°05'3 2.6
2015-Jun-26 07:33N 49°30' E 000°02'4 3.5
2015-Jun-26 06:34N 49°29' E 000°07'0 0.0
2015-Jun-26 05:34N 49°29' E 000°07'1616.2
2015-Jun-26 04:33N 49°43' W 000°05'1616.2
2015-Jun-26 03:33N 49°29' E 000°07'0 0.0
2015-Jun-26 02:33N 49°29' E 000°07'0 0.0
2015-Jun-26 01:33N 49°29' E 000°07'0 0.3
2015-Jun-26 00:33N 49°29' E 000°06'0 0.3
2015-Jun-25 23:33N 49°29' E 000°07'0 0.0
2015-Jun-25 22:32N 49°29' E 000°07'0 0.0
2015-Jun-25 21:33N 49°29' E 000°07'0 0.0
2015-Jun-25 20:33N 49°29' E 000°07'0 0.4
2015-Jun-25 19:33N 49°29' E 000°06'0 0.2
2015-Jun-25 18:33N 49°29' E 000°07'0 0.2
2015-Jun-25 17:33N 49°29' E 000°07'0 0.0
2015-Jun-25 16:33N 49°29' E 000°07'0 0.0
2015-Jun-25 15:33N 49°29' E 000°07'  

Dump ship's entire track history